Terminal Aerodrome Forecast
Issued by NWS Wilmington, OH

Current Version | Previous Version | Graphics & Text | Print | Product List | Glossary On
Versions: 1 2 3 4 5 6 7 8 9 10 11 12 13 14 15 16 17 18 19 20 21 22 23
000
FTUS41 KILN 262057 AAA
TAFCVG
TAF AMD
KCVG 262057Z 2621/2724 18012G22KT P6SM FEW050 SCT100
     FM270500 17012G20KT P6SM SCT250 WS020/18040KT
     FM271000 19012KT P6SM VCSH SCT040 OVC080
     FM271300 20014G22KT P6SM OVC025
     FM271800 24014G22KT P6SM OVC035
     FM272300 25008KT P6SM BKN040=

USA.gov is the U.S. government's official web portal to all federal, state and local government web resources and services.